N129DC PLCH-PLPA
Flight info
| Callsign | N129DC |
|---|---|
| Flight time | 1h 13m |
| Altitude | 34000 |
| Route | DCT |
| Aircraft | FA50/M-A/S |
Departure
| Time | 2026-04-11 14:59 |
|---|---|
| Airport | Cassidy International Airport (PLCH) |
Arrival
| Time | 2026-04-11 16:13 |
|---|---|
| Airport | Palmyra (Cooper) Airport (PLPA) |
| Time | Latitude | Longitude | Altitude | Speed | Heading |
|---|---|---|---|---|---|
| 2026-04-11 14:46 | 1.98853 | -157.35016 | 12 ft | 0 kts | 215° |
| 2026-04-11 14:53 | 1.98862 | -157.35008 | 12 ft | 2 kts | 232° |
| 2026-04-11 14:53 | 1.98868 | -157.34991 | 12 ft | 3 kts | 268° |
| 2026-04-11 14:54 | 1.98863 | -157.34972 | 12 ft | 3 kts | 300° |
| 2026-04-11 14:54 | 1.98860 | -157.34967 | 12 ft | 4 kts | 305° |
| 2026-04-11 14:54 | 1.98899 | -157.35018 | 12 ft | 8 kts | 308° |
| 2026-04-11 14:54 | 1.98933 | -157.35063 | 12 ft | 10 kts | 307° |
| 2026-04-11 14:55 | 1.98972 | -157.35123 | 12 ft | 11 kts | 305° |
| 2026-04-11 14:55 | 1.99028 | -157.35193 | 12 ft | 12 kts | 316° |
| 2026-04-11 14:55 | 1.99071 | -157.35243 | 12 ft | 8 kts | 257° |
| 2026-04-11 14:55 | 1.99017 | -157.35313 | 12 ft | 13 kts | 225° |
| 2026-04-11 14:56 | 1.98969 | -157.35361 | 12 ft | 8 kts | 225° |
| 2026-04-11 14:56 | 1.98935 | -157.35395 | 12 ft | 7 kts | 225° |
| 2026-04-11 14:56 | 1.98892 | -157.35438 | 12 ft | 12 kts | 225° |
| 2026-04-11 14:56 | 1.98869 | -157.35501 | 12 ft | 7 kts | 309° |
| 2026-04-11 14:57 | 1.98915 | -157.35552 | 12 ft | 15 kts | 313° |
| 2026-04-11 14:57 | 1.98997 | -157.35632 | 12 ft | 15 kts | 316° |
| 2026-04-11 14:57 | 1.99033 | -157.35667 | 12 ft | 0 kts | 316° |
| 2026-04-11 14:58 | 1.99061 | -157.35696 | 12 ft | 12 kts | 309° |
| 2026-04-11 14:58 | 1.99094 | -157.35704 | 12 ft | 7 kts | 85° |
| 2026-04-11 14:59 | 1.99098 | -157.35515 | 12 ft | 64 kts | 88° |
| 2026-04-11 14:59 | 1.99098 | -157.34797 | 16 ft | 139 kts | 89° |
| 2026-04-11 14:59 | 1.99108 | -157.33667 | 261 ft | 188 kts | 88° |
| 2026-04-11 14:59 | 1.99347 | -157.32281 | 856 ft | 216 kts | 65° |
| 2026-04-11 15:00 | 2.00331 | -157.31094 | 1459 ft | 230 kts | 36° |
| 2026-04-11 15:00 | 2.01863 | -157.30525 | 2039 ft | 243 kts | 9° |
| 2026-04-11 15:00 | 2.03542 | -157.30770 | 2616 ft | 251 kts | 341° |
| 2026-04-11 15:00 | 2.04999 | -157.31777 | 3206 ft | 261 kts | 320° |
| 2026-04-11 15:01 | 2.06248 | -157.33131 | 3789 ft | 268 kts | 313° |
| 2026-04-11 15:01 | 2.07425 | -157.34594 | 4369 ft | 272 kts | 311° |
| 2026-04-11 15:01 | 2.08615 | -157.36079 | 4947 ft | 275 kts | 311° |
| 2026-04-11 15:01 | 2.09833 | -157.37576 | 5526 ft | 279 kts | 312° |
| 2026-04-11 15:02 | 2.11066 | -157.39085 | 6102 ft | 282 kts | 312° |
| 2026-04-11 15:02 | 2.12315 | -157.40612 | 6682 ft | 285 kts | 312° |
| 2026-04-11 15:02 | 2.13577 | -157.42156 | 7259 ft | 288 kts | 312° |
| 2026-04-11 15:02 | 2.14850 | -157.43715 | 7834 ft | 291 kts | 312° |
| 2026-04-11 15:03 | 2.15699 | -157.44757 | 8218 ft | 293 kts | 311° |
| 2026-04-11 15:03 | 2.16994 | -157.46345 | 8795 ft | 296 kts | 311° |
| 2026-04-11 15:03 | 2.18298 | -157.47947 | 9371 ft | 299 kts | 311° |
| 2026-04-11 15:03 | 2.19616 | -157.49566 | 9949 ft | 302 kts | 311° |
| 2026-04-11 15:04 | 2.21383 | -157.51739 | 10715 ft | 306 kts | 311° |
| 2026-04-11 15:04 | 2.22292 | -157.52857 | 11104 ft | 307 kts | 311° |
| 2026-04-11 15:04 | 2.23646 | -157.54522 | 11681 ft | 310 kts | 311° |
| 2026-04-11 15:04 | 2.25016 | -157.56208 | 12260 ft | 313 kts | 311° |
| 2026-04-11 15:05 | 2.26394 | -157.57903 | 12836 ft | 316 kts | 311° |
| 2026-04-11 15:05 | 2.27785 | -157.59616 | 13413 ft | 319 kts | 311° |
| 2026-04-11 15:05 | 2.29175 | -157.61328 | 13984 ft | 322 kts | 311° |
| 2026-04-11 15:05 | 2.30594 | -157.63075 | 14561 ft | 325 kts | 311° |
| 2026-04-11 15:06 | 2.32026 | -157.64838 | 15139 ft | 328 kts | 311° |
| 2026-04-11 15:06 | 2.33470 | -157.66617 | 15718 ft | 330 kts | 311° |
| 2026-04-11 15:06 | 2.34920 | -157.68404 | 16296 ft | 332 kts | 311° |
| 2026-04-11 15:06 | 2.36379 | -157.70202 | 16874 ft | 333 kts | 311° |
| 2026-04-11 15:07 | 2.37845 | -157.72007 | 17451 ft | 335 kts | 311° |
| 2026-04-11 15:07 | 2.39317 | -157.73820 | 18029 ft | 336 kts | 311° |
| 2026-04-11 15:07 | 2.40794 | -157.75640 | 18607 ft | 338 kts | 311° |
| 2026-04-11 15:07 | 2.42278 | -157.77467 | 19184 ft | 339 kts | 311° |
| 2026-04-11 15:08 | 2.43748 | -157.79278 | 19753 ft | 340 kts | 311° |
| 2026-04-11 15:08 | 2.45246 | -157.81124 | 20331 ft | 342 kts | 311° |
| 2026-04-11 15:08 | 2.46754 | -157.82982 | 20910 ft | 344 kts | 311° |
| 2026-04-11 15:08 | 2.48266 | -157.84845 | 21487 ft | 346 kts | 311° |
| 2026-04-11 15:09 | 2.49786 | -157.86718 | 22063 ft | 348 kts | 311° |
| 2026-04-11 15:09 | 2.51321 | -157.88609 | 22642 ft | 350 kts | 311° |
| 2026-04-11 15:09 | 2.52864 | -157.90510 | 23220 ft | 352 kts | 311° |
| 2026-04-11 15:09 | 2.54416 | -157.92422 | 23700 ft | 358 kts | 311° |
| 2026-04-11 15:10 | 2.55989 | -157.94358 | 23826 ft | 367 kts | 311° |
| 2026-04-11 15:10 | 2.57598 | -157.96338 | 23859 ft | 366 kts | 311° |
| 2026-04-11 15:10 | 2.59198 | -157.98311 | 23864 ft | 365 kts | 311° |
| 2026-04-11 15:10 | 2.60803 | -158.00289 | 23871 ft | 372 kts | 311° |
| 2026-04-11 15:11 | 2.62496 | -158.02370 | 23878 ft | 400 kts | 311° |
| 2026-04-11 15:11 | 2.64304 | -158.04588 | 23884 ft | 421 kts | 311° |
| 2026-04-11 15:11 | 2.66184 | -158.06897 | 23889 ft | 433 kts | 311° |
| 2026-04-11 15:11 | 2.68103 | -158.09256 | 23890 ft | 441 kts | 311° |
| 2026-04-11 15:12 | 2.70047 | -158.11650 | 23891 ft | 445 kts | 311° |
| 2026-04-11 15:12 | 2.72007 | -158.14066 | 23891 ft | 448 kts | 311° |
| 2026-04-11 15:12 | 2.73975 | -158.16495 | 23889 ft | 450 kts | 311° |
| 2026-04-11 15:12 | 2.75952 | -158.18934 | 23887 ft | 452 kts | 311° |
| 2026-04-11 15:13 | 2.77936 | -158.21383 | 23889 ft | 453 kts | 311° |
| 2026-04-11 15:13 | 2.79895 | -158.23802 | 23892 ft | 453 kts | 311° |
| 2026-04-11 15:13 | 2.81884 | -158.26257 | 23891 ft | 454 kts | 310° |
| 2026-04-11 15:13 | 2.83874 | -158.28715 | 23888 ft | 454 kts | 310° |
| 2026-04-11 15:14 | 2.85864 | -158.31171 | 23885 ft | 455 kts | 310° |
| 2026-04-11 15:14 | 2.87853 | -158.33627 | 23883 ft | 455 kts | 310° |
| 2026-04-11 15:14 | 2.89845 | -158.36086 | 23882 ft | 455 kts | 311° |
| 2026-04-11 15:14 | 2.91836 | -158.38544 | 23878 ft | 455 kts | 311° |
| 2026-04-11 15:15 | 2.93829 | -158.41004 | 23876 ft | 455 kts | 311° |
| 2026-04-11 15:15 | 2.95826 | -158.43470 | 23876 ft | 455 kts | 311° |
| 2026-04-11 15:15 | 2.97817 | -158.45927 | 23915 ft | 454 kts | 311° |
| 2026-04-11 15:15 | 2.99812 | -158.48390 | 23938 ft | 454 kts | 311° |
| 2026-04-11 15:16 | 3.01802 | -158.50846 | 23953 ft | 454 kts | 311° |
| 2026-04-11 15:16 | 3.03791 | -158.53303 | 23958 ft | 454 kts | 311° |
| 2026-04-11 15:16 | 3.05779 | -158.55757 | 23959 ft | 454 kts | 311° |
| 2026-04-11 15:16 | 3.07771 | -158.58215 | 23958 ft | 454 kts | 310° |
| 2026-04-11 15:17 | 3.09763 | -158.60674 | 23956 ft | 454 kts | 311° |
| 2026-04-11 15:17 | 3.11751 | -158.63129 | 23955 ft | 454 kts | 311° |
| 2026-04-11 15:17 | 3.13739 | -158.65583 | 23955 ft | 455 kts | 311° |
| 2026-04-11 15:17 | 3.15705 | -158.68011 | 23958 ft | 455 kts | 311° |
| 2026-04-11 15:18 | 3.17700 | -158.70474 | 23970 ft | 455 kts | 311° |
| 2026-04-11 15:18 | 3.19693 | -158.72935 | 23976 ft | 455 kts | 311° |
| 2026-04-11 15:18 | 3.21688 | -158.75399 | 23978 ft | 455 kts | 311° |
| 2026-04-11 15:18 | 3.23682 | -158.77861 | 23978 ft | 455 kts | 311° |
| 2026-04-11 15:19 | 3.25678 | -158.80326 | 23978 ft | 455 kts | 310° |
| 2026-04-11 15:19 | 3.27675 | -158.82793 | 23977 ft | 455 kts | 311° |
| 2026-04-11 15:19 | 3.29670 | -158.85257 | 23976 ft | 456 kts | 311° |
| 2026-04-11 15:19 | 3.31665 | -158.87722 | 23976 ft | 456 kts | 311° |
| 2026-04-11 15:20 | 3.33664 | -158.90192 | 23975 ft | 456 kts | 311° |
| 2026-04-11 15:20 | 3.35637 | -158.92629 | 23983 ft | 455 kts | 311° |
| 2026-04-11 15:20 | 3.37633 | -158.95095 | 23987 ft | 455 kts | 311° |
| 2026-04-11 15:20 | 3.39626 | -158.97558 | 23988 ft | 456 kts | 311° |
| 2026-04-11 15:21 | 3.41623 | -159.00025 | 23988 ft | 456 kts | 311° |
| 2026-04-11 15:21 | 3.43617 | -159.02490 | 23988 ft | 456 kts | 311° |
| 2026-04-11 15:21 | 3.45610 | -159.04953 | 23987 ft | 456 kts | 311° |
| 2026-04-11 15:21 | 3.47604 | -159.07418 | 23987 ft | 456 kts | 311° |
| 2026-04-11 15:22 | 3.49602 | -159.09888 | 23987 ft | 456 kts | 311° |
| 2026-04-11 15:22 | 3.51596 | -159.12353 | 23986 ft | 456 kts | 311° |
| 2026-04-11 15:22 | 3.53590 | -159.14818 | 23989 ft | 456 kts | 311° |
| 2026-04-11 15:22 | 3.55584 | -159.17283 | 23991 ft | 456 kts | 311° |
| 2026-04-11 15:23 | 3.57554 | -159.19719 | 23992 ft | 456 kts | 311° |
| 2026-04-11 15:23 | 3.59551 | -159.22189 | 23992 ft | 456 kts | 311° |
| 2026-04-11 15:23 | 3.61543 | -159.24653 | 23992 ft | 456 kts | 310° |
| 2026-04-11 15:23 | 3.63537 | -159.27118 | 23992 ft | 456 kts | 310° |
| 2026-04-11 15:24 | 3.65529 | -159.29583 | 23992 ft | 456 kts | 310° |
| 2026-04-11 15:24 | 3.67524 | -159.32050 | 23991 ft | 456 kts | 310° |
| 2026-04-11 15:24 | 3.69520 | -159.34519 | 23992 ft | 456 kts | 310° |
| 2026-04-11 15:24 | 3.71513 | -159.36985 | 23992 ft | 456 kts | 310° |
| 2026-04-11 15:25 | 3.73507 | -159.39453 | 23992 ft | 456 kts | 310° |
| 2026-04-11 15:25 | 3.75501 | -159.41920 | 23992 ft | 456 kts | 310° |
| 2026-04-11 15:25 | 3.77495 | -159.44387 | 23993 ft | 456 kts | 310° |
| 2026-04-11 15:25 | 3.79486 | -159.46850 | 23993 ft | 456 kts | 310° |
| 2026-04-11 15:26 | 3.81485 | -159.49324 | 23993 ft | 456 kts | 310° |
| 2026-04-11 15:26 | 3.83477 | -159.51789 | 23993 ft | 455 kts | 310° |
| 2026-04-11 15:26 | 3.85472 | -159.54256 | 23993 ft | 455 kts | 310° |
| 2026-04-11 15:26 | 3.87462 | -159.56720 | 23992 ft | 455 kts | 310° |
| 2026-04-11 15:27 | 3.89449 | -159.59180 | 23992 ft | 454 kts | 310° |
| 2026-04-11 15:27 | 3.91435 | -159.61640 | 23992 ft | 454 kts | 310° |
| 2026-04-11 15:27 | 3.93420 | -159.64097 | 23991 ft | 454 kts | 310° |
| 2026-04-11 15:27 | 3.95404 | -159.66555 | 23991 ft | 454 kts | 310° |
| 2026-04-11 15:28 | 3.97387 | -159.69012 | 23992 ft | 454 kts | 310° |
| 2026-04-11 15:28 | 3.99348 | -159.71441 | 23992 ft | 454 kts | 310° |
| 2026-04-11 15:28 | 4.01333 | -159.73900 | 23992 ft | 454 kts | 310° |
| 2026-04-11 15:28 | 4.03317 | -159.76358 | 23992 ft | 454 kts | 310° |
| 2026-04-11 15:29 | 4.05303 | -159.78818 | 23992 ft | 453 kts | 310° |
| 2026-04-11 15:29 | 4.07286 | -159.81276 | 23991 ft | 453 kts | 310° |
| 2026-04-11 15:29 | 4.09264 | -159.83727 | 23991 ft | 452 kts | 310° |
| 2026-04-11 15:29 | 4.11242 | -159.86178 | 23990 ft | 452 kts | 310° |
| 2026-04-11 15:30 | 4.13219 | -159.88629 | 23989 ft | 452 kts | 310° |
| 2026-04-11 15:30 | 4.15198 | -159.91082 | 23990 ft | 452 kts | 310° |
| 2026-04-11 15:30 | 4.17175 | -159.93533 | 23943 ft | 453 kts | 310° |
| 2026-04-11 15:30 | 4.19159 | -159.95992 | 23857 ft | 453 kts | 310° |
| 2026-04-11 15:31 | 4.21139 | -159.98447 | 23826 ft | 452 kts | 310° |
| 2026-04-11 15:31 | 4.23089 | -160.00864 | 23817 ft | 452 kts | 310° |
| 2026-04-11 15:31 | 4.25066 | -160.03317 | 23816 ft | 452 kts | 310° |
| 2026-04-11 15:31 | 4.27046 | -160.05772 | 23816 ft | 452 kts | 310° |
| 2026-04-11 15:32 | 4.29025 | -160.08227 | 23816 ft | 452 kts | 310° |
| 2026-04-11 15:32 | 4.31003 | -160.10680 | 23816 ft | 451 kts | 310° |
| 2026-04-11 15:32 | 4.32957 | -160.13104 | 23816 ft | 451 kts | 310° |
| 2026-04-11 15:32 | 4.34932 | -160.15554 | 23816 ft | 451 kts | 310° |
| 2026-04-11 15:33 | 4.36903 | -160.18000 | 23816 ft | 451 kts | 310° |
| 2026-04-11 15:33 | 4.38877 | -160.20449 | 23816 ft | 451 kts | 310° |
| 2026-04-11 15:33 | 4.40850 | -160.22897 | 23816 ft | 451 kts | 310° |
| 2026-04-11 15:33 | 4.42821 | -160.25343 | 23816 ft | 451 kts | 310° |
| 2026-04-11 15:34 | 4.44796 | -160.27794 | 23816 ft | 451 kts | 310° |
| 2026-04-11 15:34 | 4.46768 | -160.30242 | 23816 ft | 451 kts | 310° |
| 2026-04-11 15:34 | 4.48738 | -160.32687 | 23816 ft | 451 kts | 310° |
| 2026-04-11 15:34 | 4.50708 | -160.35133 | 23816 ft | 451 kts | 310° |
| 2026-04-11 15:35 | 4.52675 | -160.37576 | 23816 ft | 450 kts | 310° |
| 2026-04-11 15:35 | 4.54642 | -160.40018 | 23816 ft | 450 kts | 310° |
| 2026-04-11 15:35 | 4.56588 | -160.42435 | 23816 ft | 450 kts | 310° |
| 2026-04-11 15:35 | 4.58554 | -160.44877 | 23816 ft | 450 kts | 310° |
| 2026-04-11 15:36 | 4.60520 | -160.47318 | 23816 ft | 450 kts | 310° |
| 2026-04-11 15:36 | 4.62487 | -160.49762 | 23816 ft | 450 kts | 310° |
| 2026-04-11 15:36 | 4.64456 | -160.52208 | 23816 ft | 450 kts | 310° |
| 2026-04-11 15:36 | 4.66423 | -160.54652 | 23816 ft | 450 kts | 310° |
| 2026-04-11 15:37 | 4.68388 | -160.57093 | 23816 ft | 450 kts | 310° |
| 2026-04-11 15:37 | 4.70356 | -160.59539 | 23816 ft | 450 kts | 310° |
| 2026-04-11 15:37 | 4.72323 | -160.61984 | 23816 ft | 450 kts | 310° |
| 2026-04-11 15:37 | 4.74291 | -160.64430 | 23816 ft | 450 kts | 310° |
| 2026-04-11 15:38 | 4.76255 | -160.66872 | 23816 ft | 450 kts | 310° |
| 2026-04-11 15:38 | 4.78199 | -160.69288 | 23816 ft | 450 kts | 310° |
| 2026-04-11 15:38 | 4.80171 | -160.71740 | 23816 ft | 451 kts | 310° |
| 2026-04-11 15:38 | 4.82139 | -160.74187 | 23816 ft | 451 kts | 310° |
| 2026-04-11 15:39 | 4.84110 | -160.76637 | 23816 ft | 451 kts | 310° |
| 2026-04-11 15:39 | 4.86079 | -160.79087 | 23816 ft | 451 kts | 310° |
| 2026-04-11 15:39 | 4.88049 | -160.81538 | 23816 ft | 451 kts | 310° |
| 2026-04-11 15:39 | 4.90017 | -160.83985 | 23816 ft | 451 kts | 310° |
| 2026-04-11 15:40 | 4.91987 | -160.86436 | 23816 ft | 451 kts | 310° |
| 2026-04-11 15:40 | 4.93953 | -160.88883 | 23816 ft | 451 kts | 310° |
| 2026-04-11 15:40 | 4.95922 | -160.91334 | 23816 ft | 451 kts | 310° |
| 2026-04-11 15:40 | 4.97890 | -160.93782 | 23743 ft | 452 kts | 310° |
| 2026-04-11 15:41 | 4.99874 | -160.96251 | 23287 ft | 455 kts | 310° |
| 2026-04-11 15:41 | 5.01851 | -160.98712 | 22732 ft | 451 kts | 310° |
| 2026-04-11 15:41 | 5.03789 | -161.01127 | 22166 ft | 449 kts | 310° |
| 2026-04-11 15:41 | 5.05745 | -161.03563 | 21590 ft | 446 kts | 310° |
| 2026-04-11 15:42 | 5.07687 | -161.05983 | 21015 ft | 444 kts | 310° |
| 2026-04-11 15:42 | 5.09620 | -161.08392 | 20438 ft | 442 kts | 310° |
| 2026-04-11 15:42 | 5.11545 | -161.10790 | 19862 ft | 439 kts | 310° |
| 2026-04-11 15:43 | 5.15357 | -161.15539 | 18710 ft | 434 kts | 310° |
| 2026-04-11 15:43 | 5.17244 | -161.17891 | 18135 ft | 432 kts | 310° |
| 2026-04-11 15:43 | 5.19125 | -161.20235 | 17559 ft | 430 kts | 310° |
| 2026-04-11 15:43 | 5.20997 | -161.22568 | 16983 ft | 428 kts | 310° |
| 2026-04-11 15:44 | 5.22862 | -161.24892 | 16406 ft | 426 kts | 310° |
| 2026-04-11 15:44 | 5.24715 | -161.27201 | 15831 ft | 424 kts | 310° |
| 2026-04-11 15:44 | 5.26564 | -161.29504 | 15255 ft | 422 kts | 309° |
| 2026-04-11 15:44 | 5.28398 | -161.31789 | 14679 ft | 419 kts | 309° |
| 2026-04-11 15:45 | 5.30222 | -161.34062 | 14104 ft | 417 kts | 309° |
| 2026-04-11 15:45 | 5.32033 | -161.36320 | 13528 ft | 414 kts | 309° |
| 2026-04-11 15:45 | 5.33834 | -161.38567 | 12953 ft | 411 kts | 309° |
| 2026-04-11 15:45 | 5.35599 | -161.40769 | 12384 ft | 409 kts | 309° |
| 2026-04-11 15:46 | 5.37373 | -161.42984 | 11809 ft | 405 kts | 309° |
| 2026-04-11 15:46 | 5.39133 | -161.45179 | 11233 ft | 402 kts | 309° |
| 2026-04-11 15:46 | 5.40878 | -161.47359 | 10657 ft | 399 kts | 310° |
| 2026-04-11 15:46 | 5.42608 | -161.49518 | 10082 ft | 395 kts | 310° |
| 2026-04-11 15:47 | 5.44323 | -161.51659 | 9506 ft | 392 kts | 310° |
| 2026-04-11 15:47 | 5.46020 | -161.53778 | 8931 ft | 388 kts | 310° |
| 2026-04-11 15:47 | 5.47706 | -161.55884 | 8355 ft | 385 kts | 310° |
| 2026-04-11 15:47 | 5.49374 | -161.57968 | 7779 ft | 381 kts | 310° |
| 2026-04-11 15:48 | 5.51027 | -161.60033 | 7203 ft | 378 kts | 310° |
| 2026-04-11 15:48 | 5.52666 | -161.62079 | 6627 ft | 374 kts | 310° |
| 2026-04-11 15:48 | 5.54292 | -161.64110 | 6051 ft | 371 kts | 310° |
| 2026-04-11 15:48 | 5.55899 | -161.66118 | 5475 ft | 367 kts | 310° |
| 2026-04-11 15:49 | 5.57491 | -161.68106 | 4900 ft | 364 kts | 310° |
| 2026-04-11 15:49 | 5.59050 | -161.70053 | 4332 ft | 360 kts | 310° |
| 2026-04-11 15:49 | 5.60615 | -161.72007 | 3755 ft | 357 kts | 310° |
| 2026-04-11 15:49 | 5.62162 | -161.73939 | 3180 ft | 353 kts | 310° |
| 2026-04-11 15:50 | 5.63696 | -161.75855 | 2605 ft | 350 kts | 310° |
| 2026-04-11 15:50 | 5.65213 | -161.77748 | 2100 ft | 345 kts | 310° |
| 2026-04-11 15:50 | 5.66688 | -161.79590 | 2025 ft | 336 kts | 310° |
| 2026-04-11 15:50 | 5.68126 | -161.81388 | 2001 ft | 313 kts | 310° |
| 2026-04-11 15:51 | 5.69405 | -161.82994 | 1993 ft | 277 kts | 310° |
| 2026-04-11 15:51 | 5.70176 | -161.83960 | 1992 ft | 257 kts | 310° |
| 2026-04-11 15:51 | 5.71244 | -161.85301 | 1992 ft | 235 kts | 310° |
| 2026-04-11 15:51 | 5.72240 | -161.86548 | 1995 ft | 225 kts | 310° |
| 2026-04-11 15:52 | 5.73212 | -161.87762 | 1998 ft | 222 kts | 310° |
| 2026-04-11 15:52 | 5.74175 | -161.88963 | 1999 ft | 220 kts | 310° |
| 2026-04-11 15:52 | 5.75133 | -161.90158 | 2001 ft | 219 kts | 310° |
| 2026-04-11 15:52 | 5.76075 | -161.91333 | 2001 ft | 218 kts | 310° |
| 2026-04-11 15:53 | 5.77025 | -161.92520 | 1999 ft | 217 kts | 310° |
| 2026-04-11 15:53 | 5.77970 | -161.93701 | 1999 ft | 217 kts | 310° |
| 2026-04-11 15:53 | 5.78915 | -161.94881 | 1999 ft | 217 kts | 310° |
| 2026-04-11 15:53 | 5.79859 | -161.96061 | 1993 ft | 216 kts | 310° |
| 2026-04-11 15:54 | 5.80796 | -161.97233 | 1957 ft | 214 kts | 310° |
| 2026-04-11 15:54 | 5.81710 | -161.98377 | 1860 ft | 207 kts | 310° |
| 2026-04-11 15:54 | 5.82607 | -161.99501 | 1721 ft | 204 kts | 310° |
| 2026-04-11 15:54 | 5.83490 | -162.00583 | 1654 ft | 194 kts | 311° |
| 2026-04-11 15:55 | 5.84327 | -162.01587 | 1633 ft | 181 kts | 311° |
| 2026-04-11 15:55 | 5.85108 | -162.02525 | 1557 ft | 177 kts | 312° |
| 2026-04-11 15:55 | 5.85921 | -162.03495 | 1293 ft | 183 kts | 311° |
| 2026-04-11 15:55 | 5.86737 | -162.04462 | 1275 ft | 178 kts | 311° |
| 2026-04-11 15:56 | 5.87520 | -162.05385 | 1262 ft | 169 kts | 312° |
| 2026-04-11 15:56 | 5.88277 | -162.06270 | 1177 ft | 166 kts | 313° |
| 2026-04-11 15:56 | 5.88363 | -162.06370 | 1175 ft | 165 kts | 313° |
| 2026-04-11 15:58 | 5.89014 | -162.07128 | 1319 ft | 148 kts | 313° |
| 2026-04-11 15:58 | 5.89650 | -162.07876 | 1430 ft | 135 kts | 313° |
| 2026-04-11 15:59 | 5.90168 | -162.08652 | 1457 ft | 138 kts | 289° |
| 2026-04-11 15:59 | 5.90069 | -162.09588 | 1524 ft | 134 kts | 253° |
| 2026-04-11 15:59 | 5.89749 | -162.10483 | 1518 ft | 139 kts | 248° |
| 2026-04-11 15:59 | 5.89676 | -162.10683 | 1515 ft | 140 kts | 249° |
| 2026-04-11 16:06 | 5.89620 | -162.10838 | 1512 ft | 141 kts | 249° |
| 2026-04-11 16:07 | 5.89291 | -162.11777 | 1505 ft | 144 kts | 250° |
| 2026-04-11 16:07 | 5.88968 | -162.12742 | 1503 ft | 147 kts | 251° |
| 2026-04-11 16:07 | 5.88652 | -162.13729 | 1504 ft | 149 kts | 251° |
| 2026-04-11 16:07 | 5.88342 | -162.14735 | 1503 ft | 152 kts | 252° |
| 2026-04-11 16:08 | 5.88040 | -162.15757 | 1502 ft | 154 kts | 253° |
| 2026-04-11 16:08 | 5.87740 | -162.16810 | 1505 ft | 155 kts | 253° |
| 2026-04-11 16:08 | 5.87463 | -162.17824 | 1492 ft | 147 kts | 254° |
| 2026-04-11 16:08 | 5.87204 | -162.18811 | 1505 ft | 145 kts | 255° |
| 2026-04-11 16:09 | 5.86804 | -162.19726 | 1460 ft | 145 kts | 224° |
| 2026-04-11 16:09 | 5.86000 | -162.19666 | 1431 ft | 126 kts | 112° |
| 2026-04-11 16:09 | 5.86112 | -162.18859 | 1588 ft | 118 kts | 75° |
| 2026-04-11 16:09 | 5.86268 | -162.18023 | 1527 ft | 122 kts | 87° |
| 2026-04-11 16:10 | 5.86206 | -162.17196 | 1473 ft | 115 kts | 95° |
| 2026-04-11 16:10 | 5.86126 | -162.16396 | 1367 ft | 119 kts | 95° |
| 2026-04-11 16:10 | 5.86050 | -162.15562 | 1221 ft | 122 kts | 95° |
| 2026-04-11 16:10 | 5.85974 | -162.14713 | 1054 ft | 121 kts | 95° |
| 2026-04-11 16:11 | 5.85927 | -162.13868 | 873 ft | 122 kts | 88° |
| 2026-04-11 16:11 | 5.86025 | -162.13007 | 722 ft | 125 kts | 81° |
| 2026-04-11 16:11 | 5.86298 | -162.12180 | 659 ft | 126 kts | 68° |
| 2026-04-11 16:11 | 5.86615 | -162.11369 | 622 ft | 123 kts | 73° |
| 2026-04-11 16:12 | 5.86882 | -162.10559 | 566 ft | 121 kts | 71° |
| 2026-04-11 16:12 | 5.87165 | -162.09781 | 464 ft | 115 kts | 71° |
| 2026-04-11 16:12 | 5.87440 | -162.09036 | 343 ft | 113 kts | 70° |
| 2026-04-11 16:12 | 5.87725 | -162.08292 | 210 ft | 115 kts | 70° |
| 2026-04-11 16:13 | 5.87995 | -162.07565 | 51 ft | 109 kts | 71° |
| 2026-04-11 16:13 | 5.88229 | -162.06934 | 12 ft | 81 kts | 66° |
| 2026-04-11 16:13 | 5.88324 | -162.06691 | 12 ft | 26 kts | 70° |
| 2026-04-11 16:13 | 5.88362 | -162.06561 | 12 ft | 10 kts | 100° |
| 2026-04-11 16:14 | 5.88363 | -162.06523 | 12 ft | 0 kts | 68° |